createdAt,value
2022-08-20T00:02:09.547Z,7.25
2022-08-20T00:04:36.564Z,7.83
2022-08-20T00:07:06.468Z,7.43
2022-08-20T00:09:36.918Z,7.93
2022-08-20T00:12:05.703Z,7.57
2022-08-20T00:14:33.956Z,8.05
2022-08-20T00:17:01.377Z,8.13
2022-08-20T00:19:28.173Z,7.80
2022-08-20T00:21:57.978Z,7.90
2022-08-20T00:24:24.969Z,7.25
2022-08-20T00:26:52.557Z,7.72
2022-08-20T00:29:20.236Z,7.93
2022-08-20T00:31:46.875Z,7.40
2022-08-20T00:34:13.388Z,8.20
2022-08-20T00:36:40.000Z,7.28
2022-08-20T00:39:06.563Z,8.32
2022-08-20T00:41:33.096Z,8.50
2022-08-20T00:44:05.630Z,8.20
2022-08-20T00:46:32.272Z,8.30
2022-08-20T00:48:59.875Z,8.55
2022-08-20T00:51:44.185Z,8.75
2022-08-20T00:54:24.912Z,8.90
2022-08-20T00:57:03.519Z,9.25
2022-08-20T00:59:33.256Z,9.38
2022-08-20T01:02:01.302Z,9.23
2022-08-20T01:04:33.797Z,9.45
2022-08-20T01:07:00.928Z,10.67
2022-08-20T01:09:49.469Z,10.48
2022-08-20T01:12:15.607Z,10.13
2022-08-20T01:14:46.234Z,11.38
2022-08-20T01:17:19.771Z,11.82
2022-08-20T01:19:50.249Z,11.60
2022-08-20T01:22:43.935Z,12.43
2022-08-20T01:25:16.871Z,12.70
2022-08-20T01:27:45.085Z,13.68
2022-08-20T01:30:12.766Z,14.57
2022-08-20T01:32:39.399Z,13.47
2022-08-20T01:35:06.916Z,14.07
2022-08-20T01:37:33.420Z,14.30
2022-08-20T01:40:00.624Z,14.43
2022-08-20T01:42:35.963Z,13.98
2022-08-20T01:45:05.709Z,14.93
2022-08-20T01:47:38.427Z,14.77
2022-08-20T01:50:16.798Z,14.52
2022-08-20T01:53:22.253Z,14.38
2022-08-20T01:55:49.057Z,14.95
2022-08-20T01:58:15.647Z,14.30
2022-08-20T02:00:43.677Z,14.57
2022-08-20T02:03:10.211Z,14.98
2022-08-20T02:05:36.748Z,15.00
2022-08-20T02:08:04.517Z,15.57
2022-08-20T02:10:33.829Z,15.83
2022-08-20T02:13:01.028Z,14.70
2022-08-20T02:15:34.464Z,14.65
2022-08-20T02:18:08.273Z,13.65
2022-08-20T02:20:35.979Z,13.23
2022-08-20T02:23:03.706Z,13.60
2022-08-20T02:25:32.800Z,13.75
2022-08-20T02:28:02.414Z,15.55
2022-08-20T02:30:33.381Z,14.60
2022-08-20T02:33:01.814Z,15.57
2022-08-20T02:35:30.676Z,14.33
2022-08-20T02:38:01.283Z,14.85
2022-08-20T02:40:30.996Z,14.77
2022-08-20T02:43:01.917Z,14.50
2022-08-20T02:45:29.899Z,14.73
2022-08-20T02:47:57.631Z,14.47
2022-08-20T02:50:26.140Z,15.10
2022-08-20T02:52:52.710Z,14.73
2022-08-20T02:55:26.985Z,14.25
2022-08-20T02:58:00.078Z,14.93
2022-08-20T03:00:28.341Z,14.83
2022-08-20T03:02:54.861Z,14.68
2022-08-20T03:05:21.402Z,14.82
2022-08-20T03:07:50.562Z,13.75
2022-08-20T03:10:17.564Z,15.20
2022-08-20T03:12:44.113Z,16.00
2022-08-20T03:15:17.514Z,15.73
2022-08-20T03:17:44.775Z,15.27
2022-08-20T03:20:13.167Z,15.73
2022-08-20T03:22:40.167Z,15.60
2022-08-20T03:25:07.686Z,16.27
2022-08-20T03:27:36.489Z,16.02
2022-08-20T03:30:07.118Z,15.60
2022-08-20T03:32:33.676Z,17.42
2022-08-20T03:35:01.788Z,16.40
2022-08-20T03:37:31.375Z,16.03
2022-08-20T03:39:58.791Z,15.38
2022-08-20T03:42:25.822Z,16.02
2022-08-20T03:44:58.579Z,16.73
2022-08-20T03:47:26.306Z,16.88
2022-08-20T03:49:55.944Z,16.37
2022-08-20T03:52:22.398Z,16.08
2022-08-20T03:54:49.412Z,16.48
2022-08-20T03:57:16.499Z,15.27
2022-08-20T03:59:44.517Z,15.77
2022-08-20T04:02:12.240Z,15.53
2022-08-20T04:04:41.004Z,15.20
2022-08-20T04:07:13.185Z,15.50
2022-08-20T04:09:39.975Z,15.98
2022-08-20T04:12:07.474Z,16.95
2022-08-20T04:14:36.283Z,17.30
2022-08-20T04:17:08.579Z,17.05
2022-08-20T04:19:36.602Z,17.33
2022-08-20T04:22:03.203Z,16.98
2022-08-20T04:24:32.449Z,16.95
2022-08-20T04:27:00.126Z,18.17
2022-08-20T04:29:32.689Z,18.55
2022-08-20T04:32:00.633Z,19.42
2022-08-20T04:34:29.923Z,19.38
2022-08-20T04:36:56.809Z,19.40
2022-08-20T04:39:23.728Z,20.20
2022-08-20T04:41:50.295Z,19.50
2022-08-20T04:44:16.767Z,19.92
2022-08-20T04:46:43.668Z,19.95
2022-08-20T04:49:10.131Z,20.88
2022-08-20T04:51:37.127Z,20.33
2022-08-20T04:54:04.529Z,20.40
2022-08-20T04:56:34.816Z,21.08
2022-08-20T04:59:01.730Z,19.38
2022-08-20T05:01:28.399Z,20.40
2022-08-20T05:03:55.782Z,19.50
2022-08-20T05:06:30.946Z,21.05
2022-08-20T05:09:00.785Z,22.00
2022-08-20T05:11:35.966Z,21.58
2022-08-20T05:14:09.469Z,23.88
2022-08-20T05:16:39.291Z,23.17
2022-08-20T05:19:10.480Z,23.10
2022-08-20T05:21:37.509Z,22.40
2022-08-20T05:24:05.092Z,22.48
2022-08-20T05:26:33.237Z,22.65
2022-08-20T05:29:02.217Z,23.07
2022-08-20T05:31:32.603Z,22.80
2022-08-20T05:34:10.793Z,22.25
2022-08-20T05:36:44.173Z,22.48
2022-08-20T05:39:11.630Z,23.30
2022-08-20T05:41:39.823Z,22.03
2022-08-20T05:44:11.379Z,23.17
2022-08-20T05:46:41.258Z,23.65
2022-08-20T05:49:16.362Z,23.88
2022-08-20T05:51:46.856Z,25.42
2022-08-20T05:54:14.078Z,24.70
2022-08-20T05:56:42.528Z,25.65
2022-08-20T05:59:10.545Z,26.75
2022-08-20T06:01:38.767Z,26.70
2022-08-20T06:04:25.817Z,27.23
2022-08-20T06:06:54.931Z,25.83
2022-08-20T06:09:30.921Z,26.83
2022-08-20T06:11:59.966Z,27.90
2022-08-20T06:14:27.527Z,27.25
2022-08-20T06:16:57.766Z,27.30
2022-08-20T06:19:26.535Z,26.90
2022-08-20T06:21:53.954Z,27.60
2022-08-20T06:24:23.312Z,26.55
2022-08-20T06:26:55.968Z,28.38
2022-08-20T06:29:22.472Z,27.52
2022-08-20T06:31:51.285Z,27.77
2022-08-20T06:34:18.846Z,28.35
2022-08-20T06:36:46.818Z,27.02
2022-08-20T06:39:15.267Z,26.88
2022-08-20T06:41:42.306Z,27.58
2022-08-20T06:44:08.949Z,28.80
2022-08-20T06:46:36.197Z,27.98
2022-08-20T06:49:04.569Z,26.60
2022-08-20T06:51:32.609Z,26.92
2022-08-20T06:53:59.187Z,26.77
2022-08-20T06:56:25.756Z,27.17
2022-08-20T06:58:52.314Z,27.85
2022-08-20T07:01:21.015Z,26.98
2022-08-20T07:03:54.780Z,27.73
2022-08-20T07:06:25.531Z,26.40
2022-08-20T07:08:53.311Z,25.70
2022-08-20T07:11:24.961Z,23.10
2022-08-20T07:13:54.245Z,24.73
2022-08-20T07:16:20.748Z,23.55
2022-08-20T07:18:47.230Z,23.35
2022-08-20T07:21:13.829Z,23.53
2022-08-20T07:23:42.163Z,21.15
2022-08-20T07:26:08.717Z,21.88
2022-08-20T07:28:35.336Z,19.90
2022-08-20T07:31:20.998Z,18.75
2022-08-20T07:33:47.712Z,16.47
2022-08-20T07:36:18.242Z,16.35
2022-08-20T07:38:50.943Z,15.73
2022-08-20T07:41:17.612Z,15.25
2022-08-20T07:43:45.961Z,15.18
2022-08-20T07:46:20.812Z,13.97
2022-08-20T07:48:50.107Z,12.00
2022-08-20T07:51:22.474Z,12.57
2022-08-20T07:53:50.631Z,11.50
2022-08-20T07:56:22.521Z,11.20
2022-08-20T07:59:00.033Z,10.67
2022-08-20T08:01:32.734Z,10.43
2022-08-20T08:04:00.103Z,10.38
2022-08-20T08:06:31.895Z,10.10
2022-08-20T08:09:10.272Z,10.15
2022-08-20T08:11:39.441Z,10.40
2022-08-20T08:14:08.366Z,10.25
2022-08-20T08:16:36.242Z,10.57
2022-08-20T08:19:07.008Z,10.38
2022-08-20T08:21:33.584Z,10.75
2022-08-20T08:24:00.549Z,10.30
2022-08-20T08:26:29.189Z,10.88
2022-08-20T08:28:56.708Z,11.50
2022-08-20T08:31:25.215Z,11.07
2022-08-20T08:33:51.779Z,10.98
2022-08-20T08:36:18.359Z,11.00
2022-08-20T08:38:45.852Z,11.07
2022-08-20T08:41:20.924Z,11.15
2022-08-20T08:43:50.605Z,12.40
2022-08-20T08:46:22.646Z,12.43
2022-08-20T08:48:53.418Z,13.37
2022-08-20T08:51:29.271Z,12.45
2022-08-20T08:53:56.851Z,13.23
2022-08-20T08:56:30.678Z,13.13
2022-08-20T08:59:08.638Z,12.93
2022-08-20T09:01:54.752Z,13.93
2022-08-20T09:04:27.169Z,13.27
2022-08-20T09:06:56.515Z,13.23
2022-08-20T09:09:34.111Z,12.13
2022-08-20T09:12:07.862Z,12.95
2022-08-20T09:14:35.021Z,12.03
2022-08-20T09:17:01.648Z,12.75
2022-08-20T09:19:28.495Z,12.40
2022-08-20T09:21:55.118Z,10.82
2022-08-20T09:24:21.604Z,11.20
2022-08-20T09:26:48.078Z,11.07
2022-08-20T09:29:15.051Z,10.88
2022-08-20T09:31:41.767Z,10.27
2022-08-20T09:34:08.572Z,10.02
2022-08-20T09:36:37.485Z,10.88
2022-08-20T09:39:04.256Z,9.83
2022-08-20T09:41:33.822Z,10.80
2022-08-20T09:44:01.430Z,10.52
2022-08-20T09:46:27.925Z,10.48
2022-08-20T09:48:54.990Z,10.27
2022-08-20T09:51:21.876Z,11.03
2022-08-20T09:53:48.983Z,10.35
2022-08-20T09:56:15.640Z,11.48
2022-08-20T09:58:50.726Z,9.68
2022-08-20T10:01:19.854Z,11.20
2022-08-20T10:03:52.101Z,11.33
2022-08-20T10:06:20.937Z,11.02
2022-08-20T10:08:49.858Z,11.68
2022-08-20T10:11:18.020Z,10.45
2022-08-20T10:13:44.620Z,10.98
2022-08-20T10:16:11.138Z,11.37
2022-08-20T10:18:37.692Z,11.45
2022-08-20T10:21:09.586Z,10.80
2022-08-20T10:23:36.060Z,11.23
2022-08-20T10:26:02.560Z,10.65
2022-08-20T10:28:29.077Z,10.90
2022-08-20T10:30:55.545Z,11.40
2022-08-20T10:33:22.221Z,11.40
2022-08-20T10:35:48.688Z,11.68
2022-08-20T10:38:15.754Z,11.48
2022-08-20T10:40:42.602Z,10.43
2022-08-20T10:43:18.768Z,11.70
2022-08-20T10:45:45.283Z,11.35
2022-08-20T10:48:11.750Z,10.60
2022-08-20T10:50:38.235Z,11.05
2022-08-20T10:53:04.781Z,11.47
2022-08-20T10:55:31.246Z,10.30
2022-08-20T10:57:59.322Z,11.45
2022-08-20T11:00:26.349Z,11.00
2022-08-20T11:02:52.821Z,11.55
2022-08-20T11:05:19.818Z,10.83
2022-08-20T11:07:54.711Z,11.13
2022-08-20T11:10:24.191Z,11.27
2022-08-20T11:12:50.857Z,11.90
2022-08-20T11:15:17.367Z,11.48
2022-08-20T11:17:44.263Z,11.60
2022-08-20T11:20:19.079Z,11.60
2022-08-20T11:22:45.896Z,11.73
2022-08-20T11:25:13.675Z,11.75
2022-08-20T11:27:43.189Z,11.88
2022-08-20T11:30:16.224Z,11.50
2022-08-20T11:32:42.751Z,11.75
2022-08-20T11:35:40.450Z,12.30
2022-08-20T11:37:57.266Z,12.05
2022-08-20T11:40:24.918Z,11.65
2022-08-20T11:43:13.766Z,11.33
2022-08-20T11:45:38.565Z,11.30
2022-08-20T11:48:05.482Z,12.10
2022-08-20T11:50:32.155Z,11.98
2022-08-20T11:53:01.547Z,11.52
2022-08-20T11:55:30.476Z,11.47
2022-08-20T11:57:59.795Z,11.15
2022-08-20T12:00:32.039Z,11.60
2022-08-20T12:03:01.318Z,11.00
2022-08-20T12:05:29.830Z,12.02
2022-08-20T12:07:57.447Z,11.17
2022-08-20T12:10:26.350Z,11.75
2022-08-20T12:12:53.013Z,11.63
2022-08-20T12:15:21.042Z,11.75
2022-08-20T12:17:47.622Z,11.68
2022-08-20T12:20:15.910Z,11.90
2022-08-20T12:22:43.811Z,14.70
2022-08-20T12:25:10.546Z,15.82
2022-08-20T12:27:38.210Z,19.25
2022-08-20T12:30:11.635Z,23.85
2022-08-20T12:32:38.558Z,25.53
2022-08-20T12:35:06.963Z,26.08
2022-08-20T12:37:33.557Z,26.67
2022-08-20T12:40:01.355Z,26.67
2022-08-20T12:42:30.329Z,26.77
2022-08-20T12:44:58.002Z,25.67
2022-08-20T12:47:29.839Z,27.40
2022-08-20T12:50:01.080Z,26.38
2022-08-20T12:52:29.695Z,27.52
2022-08-20T12:54:56.820Z,27.52
2022-08-20T12:57:32.616Z,28.17
2022-08-20T13:00:13.533Z,32.95
2022-08-20T13:02:41.344Z,23.52
2022-08-20T13:05:09.392Z,25.63
2022-08-20T13:07:36.372Z,30.73
2022-08-20T13:10:03.979Z,28.63
2022-08-20T13:12:31.072Z,30.67
2022-08-20T13:14:57.616Z,19.55
2022-08-20T13:17:38.140Z,15.52
2022-08-20T13:20:09.605Z,19.88
2022-08-20T13:22:36.498Z,28.23
2022-08-20T13:25:03.974Z,24.83
2022-08-20T13:27:30.551Z,34.35
2022-08-20T13:29:59.047Z,32.33
2022-08-20T13:32:26.067Z,33.83
2022-08-20T13:34:52.682Z,32.97
2022-08-20T13:37:25.098Z,33.85
2022-08-20T13:39:52.678Z,37.90
2022-08-20T13:42:19.822Z,35.88
2022-08-20T13:44:46.418Z,34.15
2022-08-20T13:47:34.655Z,33.63
2022-08-20T13:50:15.940Z,33.35
2022-08-20T13:52:43.348Z,33.17
2022-08-20T13:55:12.614Z,33.03
2022-08-20T13:57:40.165Z,35.88
2022-08-20T14:00:13.251Z,33.63
2022-08-20T14:02:40.697Z,33.20
2022-08-20T14:05:07.924Z,33.92
2022-08-20T14:07:34.562Z,32.28
2022-08-20T14:10:09.599Z,32.95
2022-08-20T14:12:38.368Z,31.90
2022-08-20T14:15:08.757Z,30.92
2022-08-20T14:17:38.646Z,30.33
2022-08-20T14:20:14.167Z,29.00
2022-08-20T14:22:42.363Z,28.92
2022-08-20T14:25:10.514Z,26.63
2022-08-20T14:27:37.437Z,24.52
2022-08-20T14:30:10.829Z,24.65
2022-08-20T14:32:37.400Z,20.05
2022-08-20T14:35:05.376Z,19.95
2022-08-20T14:37:38.125Z,18.73
2022-08-20T14:40:08.046Z,19.27
2022-08-20T14:42:34.920Z,19.98
2022-08-20T14:45:05.039Z,18.95
2022-08-20T14:47:36.834Z,19.55
2022-08-20T14:50:07.667Z,24.23
2022-08-20T14:52:36.607Z,23.95
2022-08-20T14:55:09.742Z,24.20
2022-08-20T14:57:36.690Z,25.02
2022-08-20T15:00:05.448Z,26.25
2022-08-20T15:02:32.460Z,24.10
2022-08-20T15:04:59.085Z,25.92
2022-08-20T15:07:35.531Z,25.90
2022-08-20T15:10:07.849Z,26.25
2022-08-20T15:12:35.309Z,27.25
2022-08-20T15:15:13.424Z,26.20
2022-08-20T15:17:51.776Z,26.75
2022-08-20T15:20:21.129Z,26.80
2022-08-20T15:22:48.463Z,26.55
2022-08-20T15:25:19.636Z,26.60
2022-08-20T15:27:46.881Z,26.27
2022-08-20T15:30:17.382Z,26.40
2022-08-20T15:32:46.141Z,25.40
2022-08-20T15:35:14.495Z,26.30
2022-08-20T15:37:46.511Z,25.25
2022-08-20T15:40:18.228Z,24.07
2022-08-20T15:42:46.801Z,24.20
2022-08-20T15:45:21.516Z,25.30
2022-08-20T15:47:52.528Z,24.38
2022-08-20T15:50:32.777Z,25.30
2022-08-20T15:53:07.090Z,22.97
2022-08-20T15:55:33.687Z,22.92
2022-08-20T15:58:12.713Z,24.20
2022-08-20T16:00:57.255Z,22.40
2022-08-20T16:04:21.519Z,23.92
2022-08-20T16:07:14.789Z,25.80
2022-08-20T16:10:18.398Z,22.75
2022-08-20T16:12:49.267Z,20.40
2022-08-20T16:15:25.501Z,21.17
2022-08-20T16:18:04.377Z,20.85
2022-08-20T16:20:43.057Z,20.87
2022-08-20T16:23:19.440Z,19.85
2022-08-20T16:25:59.381Z,20.15
2022-08-20T16:28:29.082Z,20.83
2022-08-20T16:31:02.970Z,19.70
2022-08-20T16:34:04.228Z,18.70
2022-08-20T16:36:46.422Z,18.35
2022-08-20T16:39:28.629Z,18.42
2022-08-20T16:41:55.830Z,17.83
2022-08-20T16:44:32.171Z,19.67
2022-08-20T16:47:54.353Z,17.20
2022-08-20T16:50:26.902Z,17.60
2022-08-20T16:52:53.715Z,17.88
2022-08-20T16:55:23.429Z,17.60
2022-08-20T16:57:51.613Z,18.15
2022-08-20T17:00:35.747Z,17.97
2022-08-20T17:03:33.490Z,18.85
2022-08-20T17:06:26.926Z,18.42
2022-08-20T17:08:53.419Z,18.73
2022-08-20T17:11:29.287Z,18.40
2022-08-20T17:14:07.917Z,19.67
2022-08-20T17:16:50.595Z,19.48
2022-08-20T17:19:30.379Z,19.45
2022-08-20T17:22:09.205Z,19.42
2022-08-20T17:24:39.760Z,20.98
2022-08-20T17:27:13.372Z,19.70
2022-08-20T17:29:52.172Z,19.80
2022-08-20T17:32:22.853Z,20.20
2022-08-20T17:34:51.684Z,18.35
2022-08-20T17:37:27.053Z,20.02
2022-08-20T17:40:11.633Z,20.23
2022-08-20T17:43:05.196Z,20.70
2022-08-20T17:45:38.862Z,19.70
2022-08-20T17:48:09.103Z,18.45
2022-08-20T17:50:37.933Z,19.73
2022-08-20T17:53:23.705Z,19.13
2022-08-20T17:55:55.279Z,18.65
2022-08-20T17:58:35.538Z,21.30
2022-08-20T18:01:04.613Z,20.52
2022-08-20T18:03:36.648Z,23.15
2022-08-20T18:06:10.696Z,21.93
2022-08-20T18:08:39.219Z,21.75
2022-08-20T18:11:20.975Z,22.98
2022-08-20T18:14:30.601Z,23.50
2022-08-20T18:17:09.027Z,21.92
2022-08-20T18:20:12.199Z,24.57
2022-08-20T18:22:48.983Z,23.88
2022-08-20T18:25:39.562Z,26.25
2022-08-20T18:28:38.775Z,25.55
2022-08-20T18:31:10.479Z,26.58
2022-08-20T18:33:39.813Z,27.33
2022-08-20T18:36:18.226Z,27.27
2022-08-20T18:38:57.858Z,25.70
2022-08-20T18:41:43.860Z,26.38
2022-08-20T18:44:11.812Z,25.17
2022-08-20T18:46:52.203Z,25.87
2022-08-20T18:49:40.715Z,24.08
2022-08-20T18:52:15.909Z,24.20
2022-08-20T18:54:48.935Z,23.85
2022-08-20T18:57:25.886Z,24.55
2022-08-20T19:00:05.493Z,23.83
2022-08-20T19:02:36.534Z,24.00
2022-08-20T19:05:09.649Z,23.52
2022-08-20T19:07:48.113Z,22.25
2022-08-20T19:10:28.515Z,24.00
2022-08-20T19:13:08.366Z,25.17
2022-08-20T19:15:39.631Z,25.65
2022-08-20T19:18:10.521Z,26.70
2022-08-20T19:20:48.854Z,26.65
2022-08-20T19:23:20.442Z,26.55
2022-08-20T19:26:12.583Z,26.77
2022-08-20T19:28:54.424Z,27.00
2022-08-20T19:31:27.606Z,27.08
2022-08-20T19:34:19.516Z,26.48
2022-08-20T19:36:54.305Z,27.02
2022-08-20T19:39:24.794Z,25.50
2022-08-20T19:41:59.280Z,26.73
2022-08-20T19:44:54.918Z,27.40
2022-08-20T19:47:32.836Z,26.52
2022-08-20T19:50:26.499Z,27.05
2022-08-20T19:53:26.435Z,27.27
2022-08-20T19:55:59.208Z,27.67
2022-08-20T19:58:27.588Z,26.85
2022-08-20T20:00:55.557Z,27.48
2022-08-20T20:03:28.070Z,26.67
2022-08-20T20:05:57.415Z,25.53
2022-08-20T20:08:28.822Z,25.65
2022-08-20T20:11:00.532Z,25.50
2022-08-20T20:13:29.665Z,24.88
2022-08-20T20:16:01.847Z,24.05
2022-08-20T20:18:34.419Z,24.80
2022-08-20T20:21:18.208Z,25.45
2022-08-20T20:23:55.190Z,25.38
2022-08-20T20:26:21.996Z,24.58
2022-08-20T20:28:48.524Z,24.45
2022-08-20T20:31:29.955Z,24.60
2022-08-20T20:33:59.257Z,23.90
2022-08-20T20:37:01.143Z,23.20
2022-08-20T20:39:31.328Z,23.48
2022-08-20T20:42:00.130Z,22.58
2022-08-20T20:44:49.058Z,22.23
2022-08-20T20:47:23.473Z,21.25
2022-08-20T20:52:38.158Z,21.75
2022-08-20T20:55:12.907Z,22.20
2022-08-20T20:57:39.903Z,22.40
2022-08-20T21:00:14.717Z,22.02
2022-08-20T21:02:42.090Z,21.83
2022-08-20T21:05:10.491Z,22.45
2022-08-20T21:07:50.356Z,21.85
2022-08-20T21:10:18.585Z,21.17
2022-08-20T21:12:48.064Z,21.90
2022-08-20T21:15:18.718Z,21.80
2022-08-20T21:17:45.344Z,22.27
2022-08-20T21:20:14.384Z,21.95
2022-08-20T21:22:40.951Z,22.13
2022-08-20T21:25:07.912Z,21.23
2022-08-20T21:27:35.089Z,21.20
2022-08-20T21:30:04.351Z,21.23
2022-08-20T21:32:30.839Z,21.52
2022-08-20T21:34:57.348Z,20.93
2022-08-20T21:37:23.923Z,20.77
2022-08-20T21:39:50.464Z,20.52
2022-08-20T21:42:28.338Z,20.58
2022-08-20T21:44:56.640Z,20.88
2022-08-20T21:47:23.144Z,20.30
2022-08-20T21:49:49.625Z,20.67
2022-08-20T21:52:16.181Z,21.00
2022-08-20T21:54:42.646Z,20.55
2022-08-20T21:57:17.719Z,19.88
2022-08-20T21:59:44.279Z,20.63
2022-08-20T22:02:11.218Z,21.15
2022-08-20T22:04:38.137Z,21.30
2022-08-20T22:07:05.401Z,21.50
2022-08-20T22:09:34.120Z,21.35
2022-08-20T22:12:01.816Z,22.10
2022-08-20T22:14:29.227Z,22.58
2022-08-20T22:16:55.722Z,22.13
2022-08-20T22:19:22.314Z,23.30
2022-08-20T22:21:49.534Z,22.60
2022-08-20T22:24:16.029Z,23.93
2022-08-20T22:26:43.379Z,23.55
2022-08-20T22:29:11.216Z,22.00
2022-08-20T22:31:42.840Z,21.80
2022-08-20T22:34:11.961Z,21.98
2022-08-20T22:36:39.057Z,21.50
2022-08-20T22:39:06.943Z,23.02
2022-08-20T22:41:33.585Z,24.17
2022-08-20T22:44:00.539Z,24.00
2022-08-20T22:46:29.089Z,23.23
2022-08-20T22:48:56.233Z,22.57
2022-08-20T22:51:32.277Z,25.02
2022-08-20T22:54:03.844Z,26.17
2022-08-20T22:56:30.641Z,26.67
2022-08-20T22:58:59.105Z,26.13
2022-08-20T23:01:26.445Z,24.77
2022-08-20T23:03:53.196Z,25.23
2022-08-20T23:06:20.052Z,23.90
2022-08-20T23:08:46.917Z,22.98
2022-08-20T23:11:13.447Z,22.63
2022-08-20T23:13:39.934Z,22.40
2022-08-20T23:16:07.208Z,22.00
2022-08-20T23:18:33.954Z,20.85
2022-08-20T23:21:00.790Z,20.65
2022-08-20T23:23:27.606Z,20.20
2022-08-20T23:25:54.674Z,18.80
2022-08-20T23:28:24.772Z,18.40
2022-08-20T23:30:53.927Z,18.77
2022-08-20T23:33:20.436Z,18.45
2022-08-20T23:35:47.136Z,19.52
2022-08-20T23:38:14.373Z,18.07
2022-08-20T23:40:41.537Z,17.20
2022-08-20T23:43:08.662Z,16.92
2022-08-20T23:45:35.326Z,15.80
2022-08-20T23:48:06.479Z,16.98
2022-08-20T23:50:32.978Z,14.77
2022-08-20T23:52:59.661Z,13.95
2022-08-20T23:55:26.520Z,14.32
2022-08-20T23:57:53.033Z,13.07
